createdAt,value
2022-09-23T00:02:10.754Z,16.81
2022-09-23T00:04:39.116Z,16.82
2022-09-23T00:07:07.407Z,16.75
2022-09-23T00:09:35.651Z,16.59
2022-09-23T00:12:08.657Z,16.59
2022-09-23T00:14:38.829Z,16.54
2022-09-23T00:17:07.196Z,16.30
2022-09-23T00:19:37.868Z,16.16
2022-09-23T00:22:06.379Z,16.36
2022-09-23T00:24:34.707Z,16.59
2022-09-23T00:27:03.126Z,16.70
2022-09-23T00:29:31.803Z,16.74
2022-09-23T00:32:00.121Z,16.76
2022-09-23T00:34:29.629Z,16.69
2022-09-23T00:36:57.953Z,16.72
2022-09-23T00:39:26.456Z,16.48
2022-09-23T00:41:54.740Z,16.30
2022-09-23T00:44:42.009Z,16.17
2022-09-23T00:47:33.721Z,16.11
2022-09-23T00:50:01.977Z,16.29
2022-09-23T00:52:32.130Z,16.26
2022-09-23T00:55:02.620Z,16.03
2022-09-23T00:57:31.349Z,16.08
2022-09-23T00:59:59.670Z,15.95
2022-09-23T01:02:28.361Z,15.77
2022-09-23T01:04:56.852Z,15.64
2022-09-23T01:07:25.155Z,15.66
2022-09-23T01:09:53.713Z,15.82
2022-09-23T01:12:36.966Z,15.98
2022-09-23T01:15:11.483Z,15.92
2022-09-23T01:17:42.622Z,16.06
2022-09-23T01:20:10.898Z,16.06
2022-09-23T01:22:39.267Z,15.85
2022-09-23T01:25:08.376Z,15.78
2022-09-23T01:27:48.923Z,15.70
2022-09-23T01:30:20.749Z,15.87
2022-09-23T01:32:55.344Z,16.01
2022-09-23T01:35:24.956Z,16.17
2022-09-23T01:37:56.127Z,16.13
2022-09-23T01:40:29.770Z,16.01
2022-09-23T01:43:18.377Z,15.86
2022-09-23T01:45:47.384Z,15.69
2022-09-23T01:48:26.579Z,15.48
2022-09-23T01:51:03.017Z,15.29
2022-09-23T01:53:32.992Z,15.17
2022-09-23T01:56:27.633Z,15.11
2022-09-23T01:59:14.718Z,14.96
2022-09-23T02:01:50.827Z,14.90
2022-09-23T02:04:32.368Z,14.80
2022-09-23T02:07:03.370Z,14.89
2022-09-23T02:09:35.543Z,15.18
2022-09-23T02:12:08.231Z,15.23
2022-09-23T02:14:41.426Z,15.21
2022-09-23T02:17:12.964Z,15.32
2022-09-23T02:19:50.408Z,15.29
2022-09-23T02:22:26.923Z,15.26
2022-09-23T02:24:56.365Z,15.19
2022-09-23T02:27:51.935Z,15.12
2022-09-23T02:30:22.723Z,15.00
2022-09-23T02:32:57.684Z,15.03
2022-09-23T02:35:25.996Z,14.99
2022-09-23T02:38:00.745Z,15.02
2022-09-23T02:40:47.487Z,15.01
2022-09-23T02:43:27.869Z,14.92
2022-09-23T02:45:56.385Z,14.69
2022-09-23T02:48:32.063Z,14.64
2022-09-23T02:51:02.379Z,14.63
2022-09-23T02:53:34.701Z,14.71
2022-09-23T02:56:12.861Z,14.88
2022-09-23T02:58:41.210Z,14.93
2022-09-23T03:01:18.742Z,15.02
2022-09-23T03:03:53.954Z,14.81
2022-09-23T03:06:51.521Z,14.65
2022-09-23T03:09:26.445Z,14.68
2022-09-23T03:12:13.626Z,14.66
2022-09-23T03:14:54.790Z,14.73
2022-09-23T03:17:49.415Z,14.90
2022-09-23T03:20:17.715Z,14.68
2022-09-23T03:22:50.086Z,14.59
2022-09-23T03:25:21.195Z,14.70
2022-09-23T03:27:50.256Z,14.72
2022-09-23T03:30:19.058Z,14.85
2022-09-23T03:32:47.677Z,14.82
2022-09-23T03:35:16.132Z,14.83
2022-09-23T03:37:47.077Z,14.77
2022-09-23T03:40:20.982Z,14.65
2022-09-23T03:42:50.057Z,14.59
2022-09-23T03:45:21.270Z,14.63
2022-09-23T03:47:49.673Z,14.65
2022-09-23T03:50:18.123Z,14.65
2022-09-23T03:52:47.388Z,14.67
2022-09-23T03:55:16.991Z,14.65
2022-09-23T03:57:45.775Z,14.54
2022-09-23T04:00:14.676Z,14.60
2022-09-23T04:02:43.200Z,14.48
2022-09-23T04:05:12.002Z,14.51
2022-09-23T04:07:41.306Z,14.63
2022-09-23T04:10:10.369Z,14.60
2022-09-23T04:12:38.742Z,14.55
2022-09-23T04:15:07.230Z,14.58
2022-09-23T04:17:35.557Z,14.65
2022-09-23T04:20:03.995Z,14.71
2022-09-23T04:22:35.300Z,14.71
2022-09-23T04:25:04.160Z,14.86
2022-09-23T04:27:37.466Z,14.75
2022-09-23T04:30:06.977Z,14.72
2022-09-23T04:32:35.252Z,14.86
2022-09-23T04:35:03.925Z,14.67
2022-09-23T04:37:32.222Z,14.44
2022-09-23T04:40:00.603Z,14.48
2022-09-23T04:42:29.988Z,14.75
2022-09-23T04:44:58.727Z,14.70
2022-09-23T04:47:26.987Z,14.71
2022-09-23T04:49:59.563Z,14.67
2022-09-23T04:52:29.851Z,14.77
2022-09-23T04:54:58.409Z,14.76
2022-09-23T04:57:26.662Z,14.79
2022-09-23T04:59:57.393Z,14.88
2022-09-23T05:02:25.904Z,14.80
2022-09-23T05:04:55.361Z,14.82
2022-09-23T05:07:24.421Z,14.73
2022-09-23T05:09:52.713Z,14.70
2022-09-23T05:12:20.984Z,14.72
2022-09-23T05:14:49.394Z,14.74
2022-09-23T05:17:17.749Z,14.69
2022-09-23T05:19:46.040Z,14.74
2022-09-23T05:22:14.284Z,14.80
2022-09-23T05:24:42.756Z,14.77
2022-09-23T05:27:11.124Z,14.81
2022-09-23T05:29:39.609Z,14.80
2022-09-23T05:32:07.967Z,14.78
2022-09-23T05:34:36.256Z,14.76
2022-09-23T05:37:05.216Z,14.72
2022-09-23T05:39:33.490Z,14.78
2022-09-23T05:42:02.974Z,14.88
2022-09-23T05:44:31.246Z,14.91
2022-09-23T05:46:59.637Z,14.94
2022-09-23T05:49:48.291Z,14.96
2022-09-23T05:52:17.129Z,14.90
2022-09-23T05:54:45.496Z,15.02
2022-09-23T05:57:13.811Z,14.85
2022-09-23T05:59:47.667Z,14.95
2022-09-23T06:02:16.063Z,14.96
2022-09-23T06:04:44.386Z,14.96
2022-09-23T06:07:12.811Z,15.16
2022-09-23T06:09:42.241Z,15.23
2022-09-23T06:12:10.775Z,15.24
2022-09-23T06:14:39.091Z,15.22
2022-09-23T06:17:07.411Z,15.12
2022-09-23T06:19:35.670Z,15.19
2022-09-23T06:22:04.003Z,15.22
2022-09-23T06:24:32.331Z,15.31
2022-09-23T06:27:01.084Z,15.39
2022-09-23T06:29:33.112Z,15.45
2022-09-23T06:32:02.066Z,15.43
2022-09-23T06:34:32.286Z,15.32
2022-09-23T06:37:14.619Z,15.31
2022-09-23T06:39:45.311Z,15.33
2022-09-23T06:42:13.691Z,15.36
2022-09-23T06:44:42.631Z,15.35
2022-09-23T06:47:10.936Z,15.48
2022-09-23T06:49:39.234Z,15.44
2022-09-23T06:52:07.518Z,15.26
2022-09-23T06:54:35.975Z,15.29
2022-09-23T06:57:04.282Z,15.35
2022-09-23T06:59:33.241Z,15.43
2022-09-23T07:02:01.681Z,15.62
2022-09-23T07:04:30.101Z,15.69
2022-09-23T07:06:59.466Z,15.73
2022-09-23T07:09:27.894Z,15.77
2022-09-23T07:11:56.398Z,15.81
2022-09-23T07:14:24.839Z,15.87
2022-09-23T07:16:53.757Z,15.98
2022-09-23T07:19:22.077Z,15.97
2022-09-23T07:21:50.441Z,16.04
2022-09-23T07:24:18.876Z,16.02
2022-09-23T07:26:47.135Z,16.12
2022-09-23T07:29:15.651Z,16.18
2022-09-23T07:31:44.017Z,16.14
2022-09-23T07:34:12.578Z,16.17
2022-09-23T07:36:41.250Z,16.23
2022-09-23T07:39:11.797Z,16.16
2022-09-23T07:41:41.506Z,16.26
2022-09-23T07:44:11.730Z,16.49
2022-09-23T07:46:40.339Z,16.54
2022-09-23T07:49:10.437Z,16.62
2022-09-23T07:51:39.697Z,16.74
2022-09-23T07:54:10.770Z,16.75
2022-09-23T07:56:39.336Z,16.71
2022-09-23T07:59:09.243Z,16.71
2022-09-23T08:01:39.356Z,16.85
2022-09-23T08:04:12.763Z,17.01
2022-09-23T08:07:00.946Z,17.11
2022-09-23T08:09:31.750Z,17.10
2022-09-23T08:12:00.673Z,17.21
2022-09-23T08:14:28.980Z,17.30
2022-09-23T08:16:57.489Z,17.38
2022-09-23T08:19:25.869Z,17.46
2022-09-23T08:21:54.702Z,17.61
2022-09-23T08:24:24.148Z,17.67
2022-09-23T08:26:53.725Z,17.77
2022-09-23T08:29:22.969Z,17.81
2022-09-23T08:31:51.823Z,17.95
2022-09-23T08:34:21.261Z,17.97
2022-09-23T08:36:49.707Z,18.08
2022-09-23T08:39:18.762Z,18.08
2022-09-23T08:41:52.047Z,18.09
2022-09-23T08:44:26.802Z,18.21
2022-09-23T08:47:01.441Z,18.29
2022-09-23T08:49:39.351Z,18.27
2022-09-23T08:52:21.164Z,18.39
2022-09-23T08:54:54.558Z,18.48
2022-09-23T08:57:44.196Z,18.49
2022-09-23T09:00:23.850Z,18.46
2022-09-23T09:02:53.991Z,18.30
2022-09-23T09:05:26.906Z,18.21
2022-09-23T09:07:59.402Z,18.51
2022-09-23T09:10:39.083Z,18.72
2022-09-23T09:13:17.031Z,18.80
2022-09-23T09:15:55.087Z,18.87
2022-09-23T09:18:24.891Z,18.90
2022-09-23T09:20:59.247Z,18.95
2022-09-23T09:23:33.665Z,19.19
2022-09-23T09:26:02.763Z,19.08
2022-09-23T09:28:38.784Z,18.98
2022-09-23T09:31:21.380Z,19.20
2022-09-23T09:34:09.594Z,19.54
2022-09-23T09:36:47.677Z,19.63
2022-09-23T09:39:16.324Z,19.78
2022-09-23T09:41:48.608Z,19.81
2022-09-23T09:44:46.712Z,20.03
2022-09-23T09:47:21.140Z,19.95
2022-09-23T09:50:00.637Z,20.06
2022-09-23T09:52:33.205Z,20.19
2022-09-23T09:55:14.741Z,20.18
2022-09-23T09:57:49.742Z,20.31
2022-09-23T10:00:25.676Z,20.39
2022-09-23T10:03:09.098Z,20.38
2022-09-23T10:05:43.551Z,20.29
2022-09-23T10:08:32.449Z,20.42
2022-09-23T10:11:07.314Z,20.63
2022-09-23T10:13:36.202Z,20.83
2022-09-23T10:16:05.131Z,20.98
2022-09-23T10:18:37.434Z,20.93
2022-09-23T10:21:14.322Z,20.85
2022-09-23T10:23:48.435Z,20.85
2022-09-23T10:26:18.355Z,20.84
2022-09-23T10:28:55.539Z,20.87
2022-09-23T10:31:34.228Z,21.03
2022-09-23T10:34:19.286Z,21.26
2022-09-23T10:37:08.311Z,21.23
2022-09-23T10:39:55.376Z,21.24
2022-09-23T10:43:06.688Z,21.22
2022-09-23T10:45:57.584Z,21.28
2022-09-23T10:48:37.305Z,21.45
2022-09-23T10:51:12.421Z,21.21
2022-09-23T10:53:50.117Z,21.20
2022-09-23T10:56:21.527Z,21.28
2022-09-23T10:59:08.842Z,21.26
2022-09-23T11:01:43.283Z,21.36
2022-09-23T11:04:14.885Z,21.43
2022-09-23T11:07:02.266Z,21.51
2022-09-23T11:09:34.817Z,21.50
2022-09-23T11:12:08.347Z,21.48
2022-09-23T11:14:40.165Z,21.61
2022-09-23T11:17:17.255Z,21.62
2022-09-23T11:19:45.850Z,21.58
2022-09-23T11:22:26.080Z,21.57
2022-09-23T11:24:58.436Z,21.78
2022-09-23T11:27:41.733Z,21.75
2022-09-23T11:30:12.595Z,21.66
2022-09-23T11:32:51.272Z,21.70
2022-09-23T11:35:24.433Z,21.77
2022-09-23T11:38:00.599Z,21.82
2022-09-23T11:40:34.398Z,21.57
2022-09-23T11:43:02.813Z,21.49
2022-09-23T11:45:33.219Z,21.60
2022-09-23T11:48:05.717Z,21.74
2022-09-23T11:50:36.806Z,21.64
2022-09-23T11:53:09.006Z,21.63
2022-09-23T11:55:54.416Z,21.62
2022-09-23T11:58:31.831Z,21.57
2022-09-23T12:01:07.812Z,21.75
2022-09-23T12:03:45.024Z,21.82
2022-09-23T12:06:26.827Z,21.89
2022-09-23T12:08:59.602Z,21.94
2022-09-23T12:11:29.024Z,22.05
2022-09-23T12:14:09.483Z,22.15
2022-09-23T12:16:55.458Z,22.18
2022-09-23T12:19:35.041Z,22.20
2022-09-23T12:22:03.333Z,22.12
2022-09-23T12:24:36.657Z,21.95
2022-09-23T12:27:08.036Z,22.04
2022-09-23T12:29:39.351Z,22.11
2022-09-23T12:32:09.956Z,21.63
2022-09-23T12:34:51.997Z,21.39
2022-09-23T12:37:28.312Z,21.47
2022-09-23T12:39:59.505Z,21.65
2022-09-23T12:42:31.087Z,21.80
2022-09-23T12:45:19.278Z,21.87
2022-09-23T12:47:47.800Z,21.97
2022-09-23T12:50:36.849Z,21.94
2022-09-23T12:53:24.151Z,22.04
2022-09-23T12:55:54.068Z,22.16
2022-09-23T12:58:37.394Z,22.21
2022-09-23T13:01:07.295Z,22.29
2022-09-23T13:03:58.690Z,22.25
2022-09-23T13:06:38.434Z,21.72
2022-09-23T13:09:09.845Z,21.74
2022-09-23T13:11:43.326Z,21.88
2022-09-23T13:14:15.400Z,21.70
2022-09-23T13:16:45.567Z,21.61
2022-09-23T13:19:27.492Z,21.97
2022-09-23T13:22:03.575Z,22.19
2022-09-23T13:24:46.300Z,21.97
2022-09-23T13:27:17.713Z,22.21
2022-09-23T13:29:46.043Z,22.10
2022-09-23T13:32:18.569Z,21.48
2022-09-23T13:34:58.743Z,21.66
2022-09-23T13:37:45.372Z,22.08
2022-09-23T13:40:16.822Z,21.73
2022-09-23T13:42:48.883Z,21.58
2022-09-23T13:45:19.214Z,21.93
2022-09-23T13:47:48.428Z,21.48
2022-09-23T13:50:19.664Z,21.85
2022-09-23T13:53:08.969Z,21.97
2022-09-23T13:55:41.333Z,22.00
2022-09-23T13:58:17.337Z,22.02
2022-09-23T14:00:47.184Z,21.96
2022-09-23T14:03:24.202Z,22.01
2022-09-23T14:05:54.107Z,22.09
2022-09-23T14:08:22.656Z,22.01
2022-09-23T14:10:51.276Z,21.94
2022-09-23T14:13:30.062Z,21.81
2022-09-23T14:16:01.712Z,21.91
2022-09-23T14:18:35.521Z,21.87
2022-09-23T14:21:04.109Z,21.66
2022-09-23T14:23:32.632Z,21.87
2022-09-23T14:26:01.496Z,22.02
2022-09-23T14:28:29.954Z,21.90
2022-09-23T14:30:58.524Z,21.98
2022-09-23T14:33:33.088Z,21.97
2022-09-23T14:36:03.327Z,21.99
2022-09-23T14:38:50.461Z,22.06
2022-09-23T14:41:21.885Z,22.02
2022-09-23T14:43:55.620Z,22.18
2022-09-23T14:46:30.317Z,22.28
2022-09-23T14:49:07.340Z,21.99
2022-09-23T14:51:42.488Z,21.96
2022-09-23T14:54:26.993Z,21.99
2022-09-23T14:56:55.394Z,21.98
2022-09-23T14:59:28.439Z,22.04
2022-09-23T15:01:57.223Z,22.01
2022-09-23T15:04:25.591Z,21.98
2022-09-23T15:06:55.710Z,21.83
2022-09-23T15:09:29.649Z,21.81
2022-09-23T15:12:03.021Z,21.91
2022-09-23T15:14:39.743Z,22.04
2022-09-23T15:17:35.482Z,21.99
2022-09-23T15:20:06.884Z,21.97
2022-09-23T15:22:48.612Z,21.69
2022-09-23T15:25:17.250Z,21.68
2022-09-23T15:28:05.798Z,21.88
2022-09-23T15:30:35.580Z,22.06
2022-09-23T15:33:04.011Z,22.14
2022-09-23T15:35:32.986Z,22.10
2022-09-23T15:38:02.676Z,22.00
2022-09-23T15:40:32.782Z,21.97
2022-09-23T15:43:22.489Z,22.09
2022-09-23T15:45:58.613Z,22.03
2022-09-23T15:48:36.105Z,22.17
2022-09-23T15:51:06.828Z,22.13
2022-09-23T15:53:37.034Z,22.28
2022-09-23T15:56:06.194Z,22.31
2022-09-23T15:58:34.558Z,22.27
2022-09-23T16:01:03.446Z,22.32
2022-09-23T16:03:32.017Z,22.39
2022-09-23T16:06:02.373Z,22.43
2022-09-23T16:08:33.057Z,22.35
2022-09-23T16:11:01.776Z,22.22
2022-09-23T16:13:30.139Z,22.28
2022-09-23T16:15:58.617Z,22.26
2022-09-23T16:18:26.968Z,22.16
2022-09-23T16:20:55.294Z,22.10
2022-09-23T16:23:34.275Z,21.88
2022-09-23T16:26:07.550Z,21.73
2022-09-23T16:28:36.048Z,21.91
2022-09-23T16:31:04.494Z,21.93
2022-09-23T16:33:32.950Z,21.84
2022-09-23T16:36:01.583Z,21.73
2022-09-23T16:38:31.940Z,21.77
2022-09-23T16:41:00.669Z,21.89
2022-09-23T16:43:39.244Z,21.86
2022-09-23T16:46:09.013Z,21.88
2022-09-23T16:48:40.361Z,21.81
2022-09-23T16:51:13.122Z,21.63
2022-09-23T16:53:42.366Z,21.57
2022-09-23T16:56:11.440Z,21.57
2022-09-23T16:58:40.178Z,21.75
2022-09-23T17:01:31.371Z,21.74
2022-09-23T17:03:59.826Z,21.64
2022-09-23T17:06:28.969Z,21.78
2022-09-23T17:08:57.341Z,21.67
2022-09-23T17:11:25.733Z,21.77
2022-09-23T17:13:54.104Z,21.80
2022-09-23T17:16:24.028Z,21.82
2022-09-23T17:18:55.474Z,21.59
2022-09-23T17:21:26.622Z,21.64
2022-09-23T17:23:55.431Z,21.53
2022-09-23T17:26:24.838Z,21.61
2022-09-23T17:28:54.304Z,21.63
2022-09-23T17:31:23.483Z,21.38
2022-09-23T17:33:52.587Z,21.37
2022-09-23T17:36:21.112Z,21.30
2022-09-23T17:38:53.455Z,21.26
2022-09-23T17:41:22.040Z,21.41
2022-09-23T17:43:54.423Z,21.28
2022-09-23T17:46:23.189Z,21.26
2022-09-23T17:48:55.463Z,21.27
2022-09-23T17:51:25.175Z,21.47
2022-09-23T17:53:53.707Z,21.57
2022-09-23T17:56:24.864Z,21.60
2022-09-23T17:58:53.655Z,21.52
2022-09-23T18:01:23.168Z,21.41
2022-09-23T18:03:58.609Z,21.13
2022-09-23T18:06:33.461Z,21.07
2022-09-23T18:09:04.088Z,21.05
2022-09-23T18:11:34.091Z,21.22
2022-09-23T18:14:06.791Z,21.30
2022-09-23T18:16:35.972Z,21.16
2022-09-23T18:19:04.809Z,21.23
2022-09-23T18:21:35.611Z,21.34
2022-09-23T18:24:28.510Z,21.23
2022-09-23T18:26:52.844Z,21.17
2022-09-23T18:29:21.310Z,21.23
2022-09-23T18:31:50.919Z,21.37
2022-09-23T18:34:20.198Z,21.11
2022-09-23T18:36:48.623Z,21.24
2022-09-23T18:39:17.213Z,21.33
2022-09-23T18:41:45.532Z,21.43
2022-09-23T18:44:13.829Z,21.39
2022-09-23T18:46:42.749Z,21.31
2022-09-23T18:49:29.824Z,21.20
2022-09-23T18:51:58.202Z,21.21
2022-09-23T18:54:27.772Z,21.20
2022-09-23T18:56:56.584Z,20.94
2022-09-23T18:59:28.050Z,20.20
2022-09-23T19:01:56.954Z,20.34
2022-09-23T19:04:27.321Z,20.25
2022-09-23T19:06:56.514Z,20.19
2022-09-23T19:09:24.963Z,19.90
2022-09-23T19:11:53.743Z,19.65
2022-09-23T19:14:22.218Z,20.00
2022-09-23T19:16:50.842Z,20.04
2022-09-23T19:19:19.217Z,19.85
2022-09-23T19:21:47.547Z,20.06
2022-09-23T19:24:19.711Z,20.07
2022-09-23T19:26:48.659Z,19.68
2022-09-23T19:29:19.384Z,19.78
2022-09-23T19:31:48.348Z,20.00
2022-09-23T19:34:23.572Z,20.16
2022-09-23T19:36:52.906Z,20.32
2022-09-23T19:39:26.575Z,20.11
2022-09-23T19:41:58.975Z,20.21
2022-09-23T19:44:27.317Z,20.20
2022-09-23T19:46:57.469Z,20.15
2022-09-23T19:49:26.053Z,20.00
2022-09-23T19:51:55.789Z,20.07
2022-09-23T19:54:26.999Z,20.12
2022-09-23T19:56:55.384Z,20.22
2022-09-23T19:59:23.866Z,20.39
2022-09-23T20:01:52.290Z,20.52
2022-09-23T20:04:20.894Z,20.64
2022-09-23T20:06:49.491Z,20.64
2022-09-23T20:09:17.846Z,20.38
2022-09-23T20:11:46.368Z,20.21
2022-09-23T20:14:15.124Z,20.17
2022-09-23T20:16:45.565Z,20.07
2022-09-23T20:19:15.060Z,20.11
2022-09-23T20:21:43.379Z,20.10
2022-09-23T20:24:13.000Z,20.24
2022-09-23T20:27:00.104Z,20.13
2022-09-23T20:29:28.825Z,19.86
2022-09-23T20:31:58.537Z,19.79
2022-09-23T20:34:29.926Z,19.96
2022-09-23T20:36:59.160Z,20.08
2022-09-23T20:39:28.075Z,20.04
2022-09-23T20:41:56.449Z,20.04
2022-09-23T20:44:25.794Z,19.97
2022-09-23T20:46:54.106Z,19.99
2022-09-23T20:49:22.613Z,19.89
2022-09-23T20:51:50.866Z,19.72
2022-09-23T20:54:19.674Z,19.58
2022-09-23T20:56:48.064Z,19.59
2022-09-23T20:59:17.705Z,19.64
2022-09-23T21:01:46.475Z,19.76
2022-09-23T21:04:15.031Z,19.82
2022-09-23T21:06:43.294Z,19.76
2022-09-23T21:09:11.573Z,19.67
2022-09-23T21:11:39.960Z,19.65
2022-09-23T21:14:08.391Z,19.65
2022-09-23T21:16:36.879Z,19.69
2022-09-23T21:19:07.926Z,19.68
2022-09-23T21:21:36.642Z,19.63
2022-09-23T21:24:31.405Z,19.71
2022-09-23T21:26:53.856Z,19.75
2022-09-23T21:29:22.130Z,19.75
2022-09-23T21:31:50.630Z,19.68
2022-09-23T21:34:19.380Z,19.67
2022-09-23T21:36:48.270Z,19.65
2022-09-23T21:39:16.707Z,19.69
2022-09-23T21:41:45.028Z,19.70
2022-09-23T21:44:13.327Z,19.54
2022-09-23T21:46:41.718Z,19.61
2022-09-23T21:49:10.190Z,19.53
2022-09-23T21:51:41.033Z,19.44
2022-09-23T21:54:15.433Z,19.48
2022-09-23T21:56:44.063Z,19.38
2022-09-23T21:59:12.386Z,19.25
2022-09-23T22:01:44.367Z,19.05
2022-09-23T22:04:14.415Z,18.64
2022-09-23T22:06:42.924Z,18.65
2022-09-23T22:09:12.837Z,18.55
2022-09-23T22:11:59.583Z,18.69
2022-09-23T22:14:28.024Z,18.80
2022-09-23T22:16:58.975Z,18.92
2022-09-23T22:19:33.097Z,18.99
2022-09-23T22:22:01.836Z,18.95
2022-09-23T22:24:30.137Z,18.92
2022-09-23T22:26:58.543Z,18.89
2022-09-23T22:29:45.538Z,19.03
2022-09-23T22:32:32.360Z,19.09
2022-09-23T22:35:00.637Z,19.10
2022-09-23T22:37:30.597Z,19.23
2022-09-23T22:39:58.973Z,19.31
2022-09-23T22:42:27.958Z,19.36
2022-09-23T22:44:56.233Z,19.44
2022-09-23T22:47:24.872Z,19.41
2022-09-23T22:49:55.510Z,19.42
2022-09-23T22:52:24.538Z,19.36
2022-09-23T22:54:53.139Z,19.32
2022-09-23T22:57:21.469Z,19.28
2022-09-23T22:59:49.836Z,19.15
2022-09-23T23:02:19.295Z,18.84
2022-09-23T23:04:48.271Z,18.79
2022-09-23T23:07:21.110Z,18.62
2022-09-23T23:09:50.477Z,18.49
2022-09-23T23:12:20.283Z,18.59
2022-09-23T23:14:49.119Z,18.80
2022-09-23T23:17:18.531Z,18.99
2022-09-23T23:19:47.413Z,18.97
2022-09-23T23:22:15.774Z,18.95
2022-09-23T23:24:44.045Z,18.87
2022-09-23T23:27:12.336Z,18.97
2022-09-23T23:29:40.603Z,19.13
2022-09-23T23:32:09.738Z,19.14
2022-09-23T23:34:38.041Z,19.18
2022-09-23T23:37:06.398Z,19.07
2022-09-23T23:39:34.956Z,18.96
2022-09-23T23:42:04.721Z,18.97
2022-09-23T23:44:34.341Z,18.75
2022-09-23T23:47:02.838Z,18.59
2022-09-23T23:49:31.312Z,18.49
2022-09-23T23:51:59.561Z,18.62
2022-09-23T23:54:27.868Z,18.59
2022-09-23T23:56:56.142Z,18.59
2022-09-23T23:59:24.689Z,18.58
